sensor_id;sensor_type;location;lat;lon;timestamp;pressure;altitude;pressure_sealevel;temperature;humidity
29839;BME280;18669;53.356;-1.464;2023-07-22T00:00:43;100224.13;;;14.50;100.00
29839;BME280;18669;53.356;-1.464;2023-07-22T00:03:28;100215.31;;;14.50;100.00
29839;BME280;18669;53.356;-1.464;2023-07-22T00:06:13;100216.25;;;14.48;100.00
29839;BME280;18669;53.356;-1.464;2023-07-22T00:08:58;100211.03;;;14.47;100.00
29839;BME280;18669;53.356;-1.464;2023-07-22T00:11:43;100212.84;;;14.46;100.00
29839;BME280;18669;53.356;-1.464;2023-07-22T00:14:28;100210.78;;;14.53;100.00
29839;BME280;18669;53.356;-1.464;2023-07-22T00:17:13;100198.69;;;14.47;100.00
29839;BME280;18669;53.356;-1.464;2023-07-22T00:19:58;100200.44;;;14.47;100.00
29839;BME280;18669;53.356;-1.464;2023-07-22T00:22:44;100196.97;;;14.46;100.00
29839;BME280;18669;53.356;-1.464;2023-07-22T00:25:29;100202.28;;;14.45;100.00
29839;BME280;18669;53.356;-1.464;2023-07-22T00:28:14;100198.81;;;14.44;100.00
29839;BME280;18669;53.356;-1.464;2023-07-22T00:30:59;100194.50;;;14.42;100.00
29839;BME280;18669;53.356;-1.464;2023-07-22T00:33:47;100179.50;;;14.42;100.00
29839;BME280;18669;53.356;-1.464;2023-07-22T00:36:32;100183.06;;;14.41;100.00
29839;BME280;18669;53.356;-1.464;2023-07-22T00:39:17;100183.91;;;14.42;100.00
29839;BME280;18669;53.356;-1.464;2023-07-22T00:42:02;100180.53;;;14.38;100.00
29839;BME280;18669;53.356;-1.464;2023-07-22T00:44:47;100187.44;;;14.42;100.00
29839;BME280;18669;53.356;-1.464;2023-07-22T00:47:34;100178.44;;;14.46;100.00
29839;BME280;18669;53.356;-1.464;2023-07-22T00:50:19;100179.41;;;14.65;100.00
29839;BME280;18669;53.356;-1.464;2023-07-22T00:53:03;100172.25;;;14.46;100.00
29839;BME280;18669;53.356;-1.464;2023-07-22T00:55:48;100173.19;;;14.45;100.00
29839;BME280;18669;53.356;-1.464;2023-07-22T00:58:34;100175.63;;;14.50;100.00
29839;BME280;18669;53.356;-1.464;2023-07-22T01:01:19;100174.13;;;14.44;100.00
29839;BME280;18669;53.356;-1.464;2023-07-22T01:04:04;100164.31;;;14.46;100.00
29839;BME280;18669;53.356;-1.464;2023-07-22T01:06:49;100147.50;;;14.47;100.00
29839;BME280;18669;53.356;-1.464;2023-07-22T01:09:38;100153.19;;;14.58;100.00
29839;BME280;18669;53.356;-1.464;2023-07-22T01:12:22;100141.50;;;14.43;100.00
29839;BME280;18669;53.356;-1.464;2023-07-22T01:15:08;100134.41;;;14.44;100.00
29839;BME280;18669;53.356;-1.464;2023-07-22T01:17:52;100131.75;;;14.44;100.00
29839;BME280;18669;53.356;-1.464;2023-07-22T01:20:38;100122.06;;;14.44;100.00
29839;BME280;18669;53.356;-1.464;2023-07-22T01:23:23;100123.03;;;14.42;100.00
29839;BME280;18669;53.356;-1.464;2023-07-22T01:26:08;100115.19;;;14.40;100.00
29839;BME280;18669;53.356;-1.464;2023-07-22T01:29:04;100111.97;;;14.53;100.00
29839;BME280;18669;53.356;-1.464;2023-07-22T01:31:52;100113.91;;;14.49;100.00
29839;BME280;18669;53.356;-1.464;2023-07-22T01:34:36;100112.59;;;14.39;100.00
29839;BME280;18669;53.356;-1.464;2023-07-22T01:37:21;100116.03;;;14.41;100.00
29839;BME280;18669;53.356;-1.464;2023-07-22T01:40:06;100104.50;;;14.42;100.00
29839;BME280;18669;53.356;-1.464;2023-07-22T01:42:57;100113.38;;;14.41;100.00
29839;BME280;18669;53.356;-1.464;2023-07-22T01:45:42;100105.53;;;14.39;100.00
29839;BME280;18669;53.356;-1.464;2023-07-22T01:48:27;100103.44;;;14.46;100.00
29839;BME280;18669;53.356;-1.464;2023-07-22T01:51:12;100098.09;;;14.47;100.00
29839;BME280;18669;53.356;-1.464;2023-07-22T01:53:57;100085.72;;;14.48;100.00
29839;BME280;18669;53.356;-1.464;2023-07-22T01:56:42;100074.28;;;14.47;100.00
29839;BME280;18669;53.356;-1.464;2023-07-22T01:59:27;100076.63;;;14.54;100.00
29839;BME280;18669;53.356;-1.464;2023-07-22T02:02:12;100064.44;;;14.50;100.00
29839;BME280;18669;53.356;-1.464;2023-07-22T02:04:57;100061.19;;;14.44;100.00
29839;BME280;18669;53.356;-1.464;2023-07-22T02:07:42;100066.03;;;14.54;100.00
29839;BME280;18669;53.356;-1.464;2023-07-22T02:10:27;100048.88;;;14.43;100.00
29839;BME280;18669;53.356;-1.464;2023-07-22T02:13:11;100057.44;;;14.48;100.00
29839;BME280;18669;53.356;-1.464;2023-07-22T02:15:56;100057.44;;;14.48;100.00
29839;BME280;18669;53.356;-1.464;2023-07-22T02:18:41;100060.09;;;14.48;100.00
29839;BME280;18669;53.356;-1.464;2023-07-22T02:21:26;100049.66;;;14.45;100.00
29839;BME280;18669;53.356;-1.464;2023-07-22T02:24:12;100045.91;;;14.50;100.00
29839;BME280;18669;53.356;-1.464;2023-07-22T02:26:58;100039.88;;;14.47;100.00
29839;BME280;18669;53.356;-1.464;2023-07-22T02:29:42;100039.09;;;14.45;100.00
29839;BME280;18669;53.356;-1.464;2023-07-22T02:32:27;100032.63;;;14.32;100.00
29839;BME280;18669;53.356;-1.464;2023-07-22T02:35:12;100030.25;;;14.26;100.00
29839;BME280;18669;53.356;-1.464;2023-07-22T02:37:57;100032.69;;;14.30;100.00
29839;BME280;18669;53.356;-1.464;2023-07-22T02:40:42;100031.91;;;14.28;100.00
29839;BME280;18669;53.356;-1.464;2023-07-22T02:43:27;100026.75;;;14.25;100.00
29839;BME280;18669;53.356;-1.464;2023-07-22T02:46:12;100025.97;;;14.23;100.00
29839;BME280;18669;53.356;-1.464;2023-07-22T02:48:58;100018.59;;;14.30;100.00
29839;BME280;18669;53.356;-1.464;2023-07-22T02:51:43;100016.03;;;14.28;100.00
29839;BME280;18669;53.356;-1.464;2023-07-22T02:54:28;100010.81;;;14.27;100.00
29839;BME280;18669;53.356;-1.464;2023-07-22T02:57:13;100013.41;;;14.28;100.00
29839;BME280;18669;53.356;-1.464;2023-07-22T02:59:58;100011.50;;;14.30;100.00
29839;BME280;18669;53.356;-1.464;2023-07-22T03:02:43;100001.09;;;14.27;100.00
29839;BME280;18669;53.356;-1.464;2023-07-22T03:05:28;100010.31;;;14.38;100.00
29839;BME280;18669;53.356;-1.464;2023-07-22T03:08:14;100009.47;;;14.37;100.00
29839;BME280;18669;53.356;-1.464;2023-07-22T03:10:59;100000.78;;;14.33;100.00
29839;BME280;18669;53.356;-1.464;2023-07-22T03:13:44;100000.72;;;14.35;100.00
29839;BME280;18669;53.356;-1.464;2023-07-22T03:16:29;99998.00;;;14.37;100.00
29839;BME280;18669;53.356;-1.464;2023-07-22T03:19:13;100000.59;;;14.38;100.00
29839;BME280;18669;53.356;-1.464;2023-07-22T03:21:58;99995.31;;;14.38;100.00
29839;BME280;18669;53.356;-1.464;2023-07-22T03:24:43;99992.66;;;14.38;100.00
29839;BME280;18669;53.356;-1.464;2023-07-22T03:27:29;99993.44;;;14.40;100.00
29839;BME280;18669;53.356;-1.464;2023-07-22T03:30:17;99996.56;;;14.48;100.00
29839;BME280;18669;53.356;-1.464;2023-07-22T03:33:02;99988.44;;;14.34;100.00
29839;BME280;18669;53.356;-1.464;2023-07-22T03:35:47;99985.13;;;14.29;100.00
29839;BME280;18669;53.356;-1.464;2023-07-22T03:38:32;99971.13;;;14.27;100.00
29839;BME280;18669;53.356;-1.464;2023-07-22T03:41:18;99970.06;;;14.31;100.00
29839;BME280;18669;53.356;-1.464;2023-07-22T03:44:03;99980.41;;;14.36;100.00
29839;BME280;18669;53.356;-1.464;2023-07-22T03:46:48;99972.31;;;14.39;100.00
29839;BME280;18669;53.356;-1.464;2023-07-22T03:49:33;99961.41;;;14.27;100.00
29839;BME280;18669;53.356;-1.464;2023-07-22T03:52:17;99961.19;;;14.32;100.00
29839;BME280;18669;53.356;-1.464;2023-07-22T03:55:03;99969.63;;;14.40;100.00
29839;BME280;18669;53.356;-1.464;2023-07-22T03:57:49;99959.47;;;14.31;100.00
29839;BME280;18669;53.356;-1.464;2023-07-22T04:00:34;99968.06;;;14.36;100.00
29839;BME280;18669;53.356;-1.464;2023-07-22T04:03:19;99968.06;;;14.36;100.00
29839;BME280;18669;53.356;-1.464;2023-07-22T04:06:04;99966.25;;;14.37;100.00
29839;BME280;18669;53.356;-1.464;2023-07-22T04:08:48;99951.09;;;14.40;100.00
29839;BME280;18669;53.356;-1.464;2023-07-22T04:11:33;99951.94;;;14.41;100.00
29839;BME280;18669;53.356;-1.464;2023-07-22T04:14:18;99946.44;;;14.45;100.00
29839;BME280;18669;53.356;-1.464;2023-07-22T04:17:03;99940.50;;;14.40;100.00
29839;BME280;18669;53.356;-1.464;2023-07-22T04:19:51;99940.97;;;14.48;100.00
29839;BME280;18669;53.356;-1.464;2023-07-22T04:22:36;99940.72;;;14.36;100.00
29839;BME280;18669;53.356;-1.464;2023-07-22T04:25:21;99932.06;;;14.32;100.00
29839;BME280;18669;53.356;-1.464;2023-07-22T04:28:06;99929.72;;;14.26;100.00
29839;BME280;18669;53.356;-1.464;2023-07-22T04:30:57;99919.00;;;14.29;100.00
29839;BME280;18669;53.356;-1.464;2023-07-22T04:33:42;99913.34;;;14.17;100.00
29839;BME280;18669;53.356;-1.464;2023-07-22T04:36:28;99915.06;;;14.18;100.00
29839;BME280;18669;53.356;-1.464;2023-07-22T04:39:12;99905.63;;;14.13;100.00
29839;BME280;18669;53.356;-1.464;2023-07-22T04:41:57;99906.56;;;14.12;100.00
29839;BME280;18669;53.356;-1.464;2023-07-22T04:44:42;99898.72;;;14.10;100.00
29839;BME280;18669;53.356;-1.464;2023-07-22T04:47:28;99904.69;;;14.14;100.00
29839;BME280;18669;53.356;-1.464;2023-07-22T04:50:13;99905.50;;;14.16;100.00
29839;BME280;18669;53.356;-1.464;2023-07-22T04:52:58;99903.00;;;14.13;100.00
29839;BME280;18669;53.356;-1.464;2023-07-22T04:55:43;99911.00;;;14.11;100.00
29839;BME280;18669;53.356;-1.464;2023-07-22T04:58:28;99910.00;;;14.14;100.00
29839;BME280;18669;53.356;-1.464;2023-07-22T05:01:13;99911.84;;;14.12;100.00
29839;BME280;18669;53.356;-1.464;2023-07-22T05:03:57;99904.84;;;14.11;100.00
29839;BME280;18669;53.356;-1.464;2023-07-22T05:06:42;99899.00;;;14.04;100.00
29839;BME280;18669;53.356;-1.464;2023-07-22T05:09:27;99908.78;;;14.02;100.00
29839;BME280;18669;53.356;-1.464;2023-07-22T05:12:12;99887.13;;;13.94;100.00
29839;BME280;18669;53.356;-1.464;2023-07-22T05:14:57;99893.06;;;13.99;100.00
29839;BME280;18669;53.356;-1.464;2023-07-22T05:17:41;99888.19;;;13.90;100.00
29839;BME280;18669;53.356;-1.464;2023-07-22T05:20:26;99890.91;;;13.88;100.00
29839;BME280;18669;53.356;-1.464;2023-07-22T05:23:11;99885.13;;;13.80;100.00
29839;BME280;18669;53.356;-1.464;2023-07-22T05:25:56;99878.19;;;13.77;100.00
29839;BME280;18669;53.356;-1.464;2023-07-22T05:28:41;99885.91;;;13.82;100.00
29839;BME280;18669;53.356;-1.464;2023-07-22T05:31:26;99880.06;;;13.75;100.00
29839;BME280;18669;53.356;-1.464;2023-07-22T05:34:11;99878.19;;;13.77;100.00
29839;BME280;18669;53.356;-1.464;2023-07-22T05:36:56;99871.19;;;13.76;100.00
29839;BME280;18669;53.356;-1.464;2023-07-22T05:39:41;99864.91;;;13.79;100.00
29839;BME280;18669;53.356;-1.464;2023-07-22T05:42:26;99871.38;;;13.71;100.00
29839;BME280;18669;53.356;-1.464;2023-07-22T05:45:12;99870.75;;;13.66;100.00
29839;BME280;18669;53.356;-1.464;2023-07-22T05:47:59;99865.41;;;13.68;100.00
29839;BME280;18669;53.356;-1.464;2023-07-22T05:50:44;99866.38;;;13.65;100.00
29839;BME280;18669;53.356;-1.464;2023-07-22T05:53:29;99854.75;;;13.69;100.00
29839;BME280;18669;53.356;-1.464;2023-07-22T05:56:14;99858.75;;;13.78;100.00
29839;BME280;18669;53.356;-1.464;2023-07-22T05:58:59;99853.69;;;13.73;100.00
29839;BME280;18669;53.356;-1.464;2023-07-22T06:01:44;99851.53;;;13.82;100.00
29839;BME280;18669;53.356;-1.464;2023-07-22T06:04:28;99844.44;;;13.82;100.00
29839;BME280;18669;53.356;-1.464;2023-07-22T06:07:13;99845.03;;;13.89;100.00
29839;BME280;18669;53.356;-1.464;2023-07-22T06:09:58;99845.69;;;13.94;100.00
29839;BME280;18669;53.356;-1.464;2023-07-22T06:12:43;99851.38;;;14.04;100.00
29839;BME280;18669;53.356;-1.464;2023-07-22T06:15:28;99846.88;;;14.06;100.00
29839;BME280;18669;53.356;-1.464;2023-07-22T06:18:13;99844.69;;;14.14;100.00
29839;BME280;18669;53.356;-1.464;2023-07-22T06:20:58;99828.13;;;14.11;100.00
29839;BME280;18669;53.356;-1.464;2023-07-22T06:23:42;99825.34;;;14.14;100.00
29839;BME280;18669;53.356;-1.464;2023-07-22T06:26:27;99818.06;;;14.19;100.00
29839;BME280;18669;53.356;-1.464;2023-07-22T06:29:12;99821.09;;;14.29;100.00
29839;BME280;18669;53.356;-1.464;2023-07-22T06:31:57;99820.50;;;14.41;100.00
29839;BME280;18669;53.356;-1.464;2023-07-22T06:34:42;99815.25;;;14.40;100.00
29839;BME280;18669;53.356;-1.464;2023-07-22T06:37:27;99811.09;;;14.53;100.00
29839;BME280;18669;53.356;-1.464;2023-07-22T06:40:11;99810.00;;;14.57;100.00
29839;BME280;18669;53.356;-1.464;2023-07-22T06:42:56;99806.13;;;14.65;100.00
29839;BME280;18669;53.356;-1.464;2023-07-22T06:45:42;99801.22;;;14.74;100.00
29839;BME280;18669;53.356;-1.464;2023-07-22T06:48:27;99797.66;;;14.75;100.00
29839;BME280;18669;53.356;-1.464;2023-07-22T06:51:11;99792.88;;;14.82;100.00
29839;BME280;18669;53.356;-1.464;2023-07-22T06:53:56;99797.56;;;14.77;100.00
29839;BME280;18669;53.356;-1.464;2023-07-22T06:56:41;99790.47;;;14.77;100.00
29839;BME280;18669;53.356;-1.464;2023-07-22T06:59:26;99787.06;;;14.75;100.00
29839;BME280;18669;53.356;-1.464;2023-07-22T07:02:11;99792.25;;;14.77;100.00
29839;BME280;18669;53.356;-1.464;2023-07-22T07:04:56;99785.88;;;14.81;100.00
29839;BME280;18669;53.356;-1.464;2023-07-22T07:07:41;99791.69;;;14.88;100.00
29839;BME280;18669;53.356;-1.464;2023-07-22T07:10:26;99798.53;;;14.92;100.00
29839;BME280;18669;53.356;-1.464;2023-07-22T07:13:10;99783.16;;;14.83;100.00
29839;BME280;18669;53.356;-1.464;2023-07-22T07:15:55;99785.50;;;14.71;100.00
29839;BME280;18669;53.356;-1.464;2023-07-22T07:18:40;99780.47;;;14.65;100.00
29839;BME280;18669;53.356;-1.464;2023-07-22T07:21:25;99783.22;;;14.64;100.00
29839;BME280;18669;53.356;-1.464;2023-07-22T07:24:11;99787.78;;;14.60;100.00
29839;BME280;18669;53.356;-1.464;2023-07-22T07:26:55;99787.94;;;14.57;100.00
29839;BME280;18669;53.356;-1.464;2023-07-22T07:29:40;99791.16;;;14.46;100.00
29839;BME280;18669;53.356;-1.464;2023-07-22T07:32:25;99785.22;;;14.41;100.00
29839;BME280;18669;53.356;-1.464;2023-07-22T07:35:10;99786.16;;;14.40;100.00
29839;BME280;18669;53.356;-1.464;2023-07-22T07:37:56;99773.78;;;14.40;100.00
29839;BME280;18669;53.356;-1.464;2023-07-22T07:40:41;99770.06;;;14.44;100.00
29839;BME280;18669;53.356;-1.464;2023-07-22T07:43:26;99774.63;;;14.41;100.00
29839;BME280;18669;53.356;-1.464;2023-07-22T07:46:22;99773.09;;;14.54;100.00
29839;BME280;18669;53.356;-1.464;2023-07-22T07:49:07;99768.03;;;14.32;100.00
29839;BME280;18669;53.356;-1.464;2023-07-22T07:51:54;99757.75;;;14.26;100.00
29839;BME280;18669;53.356;-1.464;2023-07-22T07:54:42;99770.28;;;14.40;100.00
29839;BME280;18669;53.356;-1.464;2023-07-22T07:57:27;99762.78;;;14.30;100.00
29839;BME280;18669;53.356;-1.464;2023-07-22T08:00:12;99760.16;;;14.30;100.00
29839;BME280;18669;53.356;-1.464;2023-07-22T08:02:58;99777.97;;;14.27;100.00
29839;BME280;18669;53.356;-1.464;2023-07-22T08:05:43;99776.41;;;14.23;100.00
29839;BME280;18669;53.356;-1.464;2023-07-22T08:08:27;99767.63;;;14.22;100.00
29839;BME280;18669;53.356;-1.464;2023-07-22T08:11:14;99762.50;;;14.19;100.00
29839;BME280;18669;53.356;-1.464;2023-07-22T08:13:59;99773.22;;;14.16;100.00
29839;BME280;18669;53.356;-1.464;2023-07-22T08:16:44;99762.88;;;14.11;100.00
29839;BME280;18669;53.356;-1.464;2023-07-22T08:19:29;99773.38;;;14.13;100.00
29839;BME280;18669;53.356;-1.464;2023-07-22T08:22:14;99775.78;;;14.17;100.00
29839;BME280;18669;53.356;-1.464;2023-07-22T08:24:58;99774.06;;;14.16;100.00
29839;BME280;18669;53.356;-1.464;2023-07-22T08:27:44;99774.22;;;14.13;100.00
29839;BME280;18669;53.356;-1.464;2023-07-22T08:30:30;99769.72;;;14.15;100.00
29839;BME280;18669;53.356;-1.464;2023-07-22T08:33:15;99768.72;;;14.18;100.00
29839;BME280;18669;53.356;-1.464;2023-07-22T08:36:00;99766.28;;;14.13;100.00
29839;BME280;18669;53.356;-1.464;2023-07-22T08:38:46;99766.28;;;14.13;100.00
29839;BME280;18669;53.356;-1.464;2023-07-22T08:41:32;99772.28;;;14.17;100.00
29839;BME280;18669;53.356;-1.464;2023-07-22T08:44:20;99757.69;;;14.27;100.00
29839;BME280;18669;53.356;-1.464;2023-07-22T08:47:10;99766.31;;;14.31;100.00
29839;BME280;18669;53.356;-1.464;2023-07-22T08:50:01;99752.22;;;14.30;100.00
29839;BME280;18669;53.356;-1.464;2023-07-22T08:52:47;99754.94;;;14.29;100.00
29839;BME280;18669;53.356;-1.464;2023-07-22T08:55:32;99761.72;;;14.35;100.00
29839;BME280;18669;53.356;-1.464;2023-07-22T08:58:17;99759.78;;;14.38;100.00
29839;BME280;18669;53.356;-1.464;2023-07-22T09:01:02;99753.72;;;14.36;100.00
29839;BME280;18669;53.356;-1.464;2023-07-22T09:03:49;99742.03;;;14.40;100.00
29839;BME280;18669;53.356;-1.464;2023-07-22T09:06:36;99731.81;;;14.32;100.00
29839;BME280;18669;53.356;-1.464;2023-07-22T09:09:21;99740.88;;;14.46;100.00
29839;BME280;18669;53.356;-1.464;2023-07-22T09:12:07;99736.50;;;14.45;100.00
29839;BME280;18669;53.356;-1.464;2023-07-22T09:14:52;99746.31;;;14.43;100.00
29839;BME280;18669;53.356;-1.464;2023-07-22T09:17:39;99739.16;;;14.45;100.00
29839;BME280;18669;53.356;-1.464;2023-07-22T09:20:26;99742.56;;;14.47;100.00
29839;BME280;18669;53.356;-1.464;2023-07-22T09:23:13;99742.66;;;14.45;100.00
29839;BME280;18669;53.356;-1.464;2023-07-22T09:26:09;99740.25;;;14.58;100.00
29839;BME280;18669;53.356;-1.464;2023-07-22T09:28:56;99736.44;;;14.46;100.00
29839;BME280;18669;53.356;-1.464;2023-07-22T09:31:48;99740.09;;;14.61;100.00
29839;BME280;18669;53.356;-1.464;2023-07-22T09:34:33;99730.22;;;14.47;100.00
29839;BME280;18669;53.356;-1.464;2023-07-22T09:37:18;99725.59;;;14.51;100.00
29839;BME280;18669;53.356;-1.464;2023-07-22T09:40:33;99729.16;;;14.68;100.00
29839;BME280;18669;53.356;-1.464;2023-07-22T09:43:18;99729.56;;;14.60;100.00
29839;BME280;18669;53.356;-1.464;2023-07-22T09:46:10;99733.31;;;14.73;100.00
29839;BME280;18669;53.356;-1.464;2023-07-22T09:48:55;99714.34;;;14.47;100.00
29839;BME280;18669;53.356;-1.464;2023-07-22T09:51:40;99721.25;;;14.50;100.00
29839;BME280;18669;53.356;-1.464;2023-07-22T09:54:26;99723.34;;;14.61;100.00
29839;BME280;18669;53.356;-1.464;2023-07-22T09:57:13;99721.72;;;14.58;100.00
29839;BME280;18669;53.356;-1.464;2023-07-22T09:59:58;99722.41;;;14.62;100.00
29839;BME280;18669;53.356;-1.464;2023-07-22T10:02:43;99712.59;;;14.64;100.00
29839;BME280;18669;53.356;-1.464;2023-07-22T10:05:29;99720.09;;;14.73;100.00
29839;BME280;18669;53.356;-1.464;2023-07-22T10:08:18;99713.28;;;14.85;100.00
29839;BME280;18669;53.356;-1.464;2023-07-22T10:11:05;99721.59;;;14.95;100.00
29839;BME280;18669;53.356;-1.464;2023-07-22T10:13:52;99710.50;;;15.04;100.00
29839;BME280;18669;53.356;-1.464;2023-07-22T10:16:37;99713.81;;;15.08;100.00
29839;BME280;18669;53.356;-1.464;2023-07-22T10:19:22;99705.09;;;15.06;100.00
29839;BME280;18669;53.356;-1.464;2023-07-22T10:22:08;99701.69;;;15.20;100.00
29839;BME280;18669;53.356;-1.464;2023-07-22T10:24:55;99694.47;;;15.40;100.00
29839;BME280;18669;53.356;-1.464;2023-07-22T10:27:41;99696.22;;;15.55;100.00
29839;BME280;18669;53.356;-1.464;2023-07-22T10:30:29;99696.50;;;15.66;100.00
29839;BME280;18669;53.356;-1.464;2023-07-22T10:33:13;99688.53;;;15.66;100.00
29839;BME280;18669;53.356;-1.464;2023-07-22T10:36:09;99685.72;;;15.70;100.00
29839;BME280;18669;53.356;-1.464;2023-07-22T10:38:58;99686.22;;;15.60;100.00
29839;BME280;18669;53.356;-1.464;2023-07-22T10:41:46;99685.97;;;15.81;100.00
29839;BME280;18669;53.356;-1.464;2023-07-22T10:44:38;99677.41;;;15.76;100.00
29839;BME280;18669;53.356;-1.464;2023-07-22T10:47:34;99679.47;;;15.71;100.00
29839;BME280;18669;53.356;-1.464;2023-07-22T10:50:20;99680.56;;;15.66;100.00
29839;BME280;18669;53.356;-1.464;2023-07-22T10:53:05;99679.81;;;15.64;100.00
29839;BME280;18669;53.356;-1.464;2023-07-22T11:01:36;99662.75;;;15.85;100.00
29839;BME280;18669;53.356;-1.464;2023-07-22T11:04:23;99666.34;;;15.84;100.00
29839;BME280;18669;53.356;-1.464;2023-07-22T11:07:44;99658.19;;;15.88;100.00
29839;BME280;18669;53.356;-1.464;2023-07-22T11:10:32;99661.66;;;15.73;100.00
29839;BME280;18669;53.356;-1.464;2023-07-22T11:13:27;99661.16;;;15.82;100.00
29839;BME280;18669;53.356;-1.464;2023-07-22T11:16:13;99657.91;;;15.77;100.00
29839;BME280;18669;53.356;-1.464;2023-07-22T11:18:57;99650.97;;;15.74;100.00
29839;BME280;18669;53.356;-1.464;2023-07-22T11:21:43;99654.13;;;15.81;100.00
29839;BME280;18669;53.356;-1.464;2023-07-22T11:24:28;99643.78;;;15.76;100.00
29839;BME280;18669;53.356;-1.464;2023-07-22T11:27:14;99639.16;;;15.80;100.00
29839;BME280;18669;53.356;-1.464;2023-07-22T11:29:59;99647.56;;;15.88;100.00
29839;BME280;18669;53.356;-1.464;2023-07-22T11:32:43;99640.09;;;15.95;100.00
29839;BME280;18669;53.356;-1.464;2023-07-22T11:35:29;99640.75;;;15.99;100.00
29839;BME280;18669;53.356;-1.464;2023-07-22T11:38:14;99628.34;;;15.99;100.00
29839;BME280;18669;53.356;-1.464;2023-07-22T11:40:59;99627.59;;;16.11;100.00
29839;BME280;18669;53.356;-1.464;2023-07-22T11:43:44;99618.88;;;16.09;100.00
29839;BME280;18669;53.356;-1.464;2023-07-22T11:46:29;99607.50;;;16.07;100.00
29839;BME280;18669;53.356;-1.464;2023-07-22T11:49:21;99616.44;;;16.21;100.00
29839;BME280;18669;53.356;-1.464;2023-07-22T11:52:08;99612.84;;;16.22;100.00
29839;BME280;18669;53.356;-1.464;2023-07-22T11:54:53;99612.00;;;16.21;100.00
29839;BME280;18669;53.356;-1.464;2023-07-22T11:57:40;99597.31;;;16.30;100.00
29839;BME280;18669;53.356;-1.464;2023-07-22T12:00:24;99601.56;;;16.18;100.00
29839;BME280;18669;53.356;-1.464;2023-07-22T12:03:09;99591.91;;;16.17;100.00
29839;BME280;18669;53.356;-1.464;2023-07-22T12:05:54;99589.44;;;16.29;100.00
29839;BME280;18669;53.356;-1.464;2023-07-22T12:08:46;99587.94;;;16.53;100.00
29839;BME280;18669;53.356;-1.464;2023-07-22T12:11:33;99587.94;;;16.53;100.00
29839;BME280;18669;53.356;-1.464;2023-07-22T12:14:18;99583.66;;;16.51;100.00
29839;BME280;18669;53.356;-1.464;2023-07-22T12:17:03;99581.19;;;16.48;100.00
29839;BME280;18669;53.356;-1.464;2023-07-22T12:19:52;99577.97;;;16.57;100.00
29839;BME280;18669;53.356;-1.464;2023-07-22T12:22:38;99578.63;;;16.61;100.00
29839;BME280;18669;53.356;-1.464;2023-07-22T12:25:23;99575.00;;;16.62;100.00
29839;BME280;18669;53.356;-1.464;2023-07-22T12:28:07;99563.81;;;16.71;100.00
29839;BME280;18669;53.356;-1.464;2023-07-22T12:30:53;99558.75;;;16.81;100.00
29839;BME280;18669;53.356;-1.464;2023-07-22T12:33:39;99553.63;;;16.78;100.00
29839;BME280;18669;53.356;-1.464;2023-07-22T12:36:24;99561.91;;;16.73;100.00
29839;BME280;18669;53.356;-1.464;2023-07-22T12:39:12;99558.69;;;16.82;100.00
29839;BME280;18669;53.356;-1.464;2023-07-22T12:41:57;99558.94;;;16.78;100.00
29839;BME280;18669;53.356;-1.464;2023-07-22T12:44:42;99553.44;;;16.81;100.00
29839;BME280;18669;53.356;-1.464;2023-07-22T12:47:27;99559.69;;;16.94;100.00
29839;BME280;18669;53.356;-1.464;2023-07-22T12:50:12;99557.03;;;16.94;100.00
29839;BME280;18669;53.356;-1.464;2023-07-22T12:53:01;99560.28;;;16.99;100.00
29839;BME280;18669;53.356;-1.464;2023-07-22T12:55:46;99547.44;;;17.06;100.00
29839;BME280;18669;53.356;-1.464;2023-07-22T12:58:31;99539.78;;;17.02;100.00
29839;BME280;18669;53.356;-1.464;2023-07-22T13:01:16;99542.78;;;17.10;100.00
29839;BME280;18669;53.356;-1.464;2023-07-22T13:04:01;99530.50;;;16.80;100.00
29839;BME280;18669;53.356;-1.464;2023-07-22T13:06:47;99528.59;;;16.82;100.00
29839;BME280;18669;53.356;-1.464;2023-07-22T13:09:32;99524.97;;;16.83;100.00
29839;BME280;18669;53.356;-1.464;2023-07-22T13:12:17;99516.75;;;16.88;100.00
29839;BME280;18669;53.356;-1.464;2023-07-22T13:15:03;99508.19;;;16.97;100.00
29839;BME280;18669;53.356;-1.464;2023-07-22T13:17:48;99511.75;;;17.10;100.00
29839;BME280;18669;53.356;-1.464;2023-07-22T13:20:33;99494.09;;;17.09;100.00
29839;BME280;18669;53.356;-1.464;2023-07-22T13:23:18;99494.53;;;17.16;100.00
29839;BME280;18669;53.356;-1.464;2023-07-22T13:26:02;99488.19;;;17.19;100.00
29839;BME280;18669;53.356;-1.464;2023-07-22T13:28:47;99476.06;;;17.27;100.00
29839;BME280;18669;53.356;-1.464;2023-07-22T13:31:32;99483.63;;;17.21;100.00
29839;BME280;18669;53.356;-1.464;2023-07-22T13:34:17;99489.56;;;17.24;100.00
29839;BME280;18669;53.356;-1.464;2023-07-22T13:37:02;99487.78;;;17.38;100.00
29839;BME280;18669;53.356;-1.464;2023-07-22T13:39:47;99486.94;;;17.37;100.00
29839;BME280;18669;53.356;-1.464;2023-07-22T13:42:32;99483.63;;;17.34;100.00
29839;BME280;18669;53.356;-1.464;2023-07-22T13:45:17;99470.22;;;17.35;100.00
29839;BME280;18669;53.356;-1.464;2023-07-22T13:48:02;99466.41;;;17.39;100.00
29839;BME280;18669;53.356;-1.464;2023-07-22T13:50:46;99463.56;;;17.68;100.00
29839;BME280;18669;53.356;-1.464;2023-07-22T13:53:31;99460.47;;;17.74;100.00
29839;BME280;18669;53.356;-1.464;2023-07-22T13:56:16;99453.44;;;17.73;100.00
29839;BME280;18669;53.356;-1.464;2023-07-22T13:59:01;99448.88;;;17.63;100.00
29839;BME280;18669;53.356;-1.464;2023-07-22T14:01:48;99451.34;;;17.66;100.00
29839;BME280;18669;53.356;-1.464;2023-07-22T14:04:33;99438.78;;;17.68;100.00
29839;BME280;18669;53.356;-1.464;2023-07-22T14:07:18;99451.31;;;17.79;100.00
29839;BME280;18669;53.356;-1.464;2023-07-22T14:10:04;99445.69;;;17.83;100.00
29839;BME280;18669;53.356;-1.464;2023-07-22T14:12:49;99446.31;;;17.87;100.00
29839;BME280;18669;53.356;-1.464;2023-07-22T14:15:34;99438.16;;;17.77;100.00
29839;BME280;18669;53.356;-1.464;2023-07-22T14:18:20;99441.75;;;17.89;100.00